sensor_id;sensor_type;location;lat;lon;timestamp;temperature;humidity
16402;DHT22;8310;44.626;11.176;2023-08-17T00:00:14;27.40;45.00
16402;DHT22;8310;44.626;11.176;2023-08-17T00:02:43;27.40;45.10
16402;DHT22;8310;44.626;11.176;2023-08-17T00:05:11;27.30;45.10
16402;DHT22;8310;44.626;11.176;2023-08-17T00:07:40;27.40;45.20
16402;DHT22;8310;44.626;11.176;2023-08-17T00:10:09;27.40;45.20
16402;DHT22;8310;44.626;11.176;2023-08-17T00:12:37;27.40;45.20
16402;DHT22;8310;44.626;11.176;2023-08-17T00:15:06;27.40;45.20
16402;DHT22;8310;44.626;11.176;2023-08-17T00:17:35;27.30;45.10
16402;DHT22;8310;44.626;11.176;2023-08-17T00:20:03;27.30;45.10
16402;DHT22;8310;44.626;11.176;2023-08-17T00:22:32;27.20;45.00
16402;DHT22;8310;44.626;11.176;2023-08-17T00:24:59;27.10;45.10
16402;DHT22;8310;44.626;11.176;2023-08-17T00:27:27;27.10;45.10
16402;DHT22;8310;44.626;11.176;2023-08-17T00:29:54;27.10;45.20
16402;DHT22;8310;44.626;11.176;2023-08-17T00:32:22;27.10;45.30
16402;DHT22;8310;44.626;11.176;2023-08-17T00:34:51;27.00;45.20
16402;DHT22;8310;44.626;11.176;2023-08-17T00:37:19;27.00;45.20
16402;DHT22;8310;44.626;11.176;2023-08-17T00:39:46;27.00;45.30
16402;DHT22;8310;44.626;11.176;2023-08-17T00:42:14;26.90;45.10
16402;DHT22;8310;44.626;11.176;2023-08-17T00:44:42;26.90;45.10
16402;DHT22;8310;44.626;11.176;2023-08-17T00:47:09;26.80;45.10
16402;DHT22;8310;44.626;11.176;2023-08-17T00:49:37;26.80;45.20
16402;DHT22;8310;44.626;11.176;2023-08-17T00:52:07;26.70;45.30
16402;DHT22;8310;44.626;11.176;2023-08-17T00:54:35;26.80;45.40
16402;DHT22;8310;44.626;11.176;2023-08-17T00:57:03;26.70;45.30
16402;DHT22;8310;44.626;11.176;2023-08-17T00:59:32;26.80;45.40
16402;DHT22;8310;44.626;11.176;2023-08-17T01:02:00;26.80;45.40
16402;DHT22;8310;44.626;11.176;2023-08-17T01:04:28;26.80;45.50
16402;DHT22;8310;44.626;11.176;2023-08-17T01:06:55;26.80;45.50
16402;DHT22;8310;44.626;11.176;2023-08-17T01:09:25;26.80;45.60
16402;DHT22;8310;44.626;11.176;2023-08-17T01:11:56;26.90;45.70
16402;DHT22;8310;44.626;11.176;2023-08-17T01:14:30;26.90;45.70
16402;DHT22;8310;44.626;11.176;2023-08-17T01:17:05;26.90;45.70
16402;DHT22;8310;44.626;11.176;2023-08-17T01:19:34;26.90;45.70
16402;DHT22;8310;44.626;11.176;2023-08-17T01:22:04;26.90;45.80
16402;DHT22;8310;44.626;11.176;2023-08-17T01:24:34;26.90;45.70
16402;DHT22;8310;44.626;11.176;2023-08-17T01:27:02;26.90;45.70
16402;DHT22;8310;44.626;11.176;2023-08-17T01:29:29;26.90;45.70
16402;DHT22;8310;44.626;11.176;2023-08-17T01:32:03;27.00;45.90
16402;DHT22;8310;44.626;11.176;2023-08-17T01:34:41;26.90;45.80
16402;DHT22;8310;44.626;11.176;2023-08-17T01:37:11;26.90;45.90
16402;DHT22;8310;44.626;11.176;2023-08-17T01:39:44;27.00;46.10
16402;DHT22;8310;44.626;11.176;2023-08-17T01:42:12;27.00;46.10
16402;DHT22;8310;44.626;11.176;2023-08-17T01:44:40;27.00;46.10
16402;DHT22;8310;44.626;11.176;2023-08-17T01:47:08;27.10;46.10
16402;DHT22;8310;44.626;11.176;2023-08-17T01:49:37;27.00;46.00
16402;DHT22;8310;44.626;11.176;2023-08-17T01:52:05;27.00;46.00
16402;DHT22;8310;44.626;11.176;2023-08-17T01:54:33;27.00;46.00
16402;DHT22;8310;44.626;11.176;2023-08-17T01:57:02;27.00;46.00
16402;DHT22;8310;44.626;11.176;2023-08-17T01:59:31;27.00;46.10
16402;DHT22;8310;44.626;11.176;2023-08-17T02:01:58;27.00;46.10
16402;DHT22;8310;44.626;11.176;2023-08-17T02:04:26;27.00;46.20
16402;DHT22;8310;44.626;11.176;2023-08-17T02:06:54;26.90;46.10
16402;DHT22;8310;44.626;11.176;2023-08-17T02:09:21;26.90;46.00
16402;DHT22;8310;44.626;11.176;2023-08-17T02:11:49;26.90;46.00
16402;DHT22;8310;44.626;11.176;2023-08-17T02:14:18;26.80;45.90
16402;DHT22;8310;44.626;11.176;2023-08-17T02:16:46;26.60;45.70
16402;DHT22;8310;44.626;11.176;2023-08-17T02:19:14;26.50;45.60
16402;DHT22;8310;44.626;11.176;2023-08-17T02:21:42;26.20;45.40
16402;DHT22;8310;44.626;11.176;2023-08-17T02:24:09;26.00;45.50
16402;DHT22;8310;44.626;11.176;2023-08-17T02:26:40;25.80;45.40
16402;DHT22;8310;44.626;11.176;2023-08-17T02:29:08;25.70;45.50
16402;DHT22;8310;44.626;11.176;2023-08-17T02:31:37;25.60;45.70
16402;DHT22;8310;44.626;11.176;2023-08-17T02:34:05;25.60;45.90
16402;DHT22;8310;44.626;11.176;2023-08-17T02:36:33;25.60;45.90
16402;DHT22;8310;44.626;11.176;2023-08-17T02:39:00;25.60;46.00
16402;DHT22;8310;44.626;11.176;2023-08-17T02:41:28;25.60;45.90
16402;DHT22;8310;44.626;11.176;2023-08-17T02:43:57;25.60;46.00
16402;DHT22;8310;44.626;11.176;2023-08-17T02:46:26;25.60;46.10
16402;DHT22;8310;44.626;11.176;2023-08-17T02:48:55;25.70;46.20
16402;DHT22;8310;44.626;11.176;2023-08-17T02:51:23;25.70;46.20
16402;DHT22;8310;44.626;11.176;2023-08-17T02:53:51;25.70;46.10
16402;DHT22;8310;44.626;11.176;2023-08-17T02:56:18;25.70;46.20
16402;DHT22;8310;44.626;11.176;2023-08-17T02:58:45;25.70;46.20
16402;DHT22;8310;44.626;11.176;2023-08-17T03:01:13;25.70;46.20
16402;DHT22;8310;44.626;11.176;2023-08-17T03:03:40;25.60;46.10
16402;DHT22;8310;44.626;11.176;2023-08-17T03:06:09;25.60;46.00
16402;DHT22;8310;44.626;11.176;2023-08-17T03:08:37;25.50;46.00
16402;DHT22;8310;44.626;11.176;2023-08-17T03:11:04;25.40;45.90
16402;DHT22;8310;44.626;11.176;2023-08-17T03:13:33;25.30;46.00
16402;DHT22;8310;44.626;11.176;2023-08-17T03:16:00;25.20;45.90
16402;DHT22;8310;44.626;11.176;2023-08-17T03:18:27;25.10;45.90
16402;DHT22;8310;44.626;11.176;2023-08-17T03:20:55;25.00;46.00
16402;DHT22;8310;44.626;11.176;2023-08-17T03:23:24;25.00;46.20
16402;DHT22;8310;44.626;11.176;2023-08-17T03:25:52;25.00;46.20
16402;DHT22;8310;44.626;11.176;2023-08-17T03:28:20;25.00;46.20
16402;DHT22;8310;44.626;11.176;2023-08-17T03:30:55;24.90;46.20
16402;DHT22;8310;44.626;11.176;2023-08-17T03:33:22;24.90;46.40
16402;DHT22;8310;44.626;11.176;2023-08-17T03:35:50;24.90;46.40
16402;DHT22;8310;44.626;11.176;2023-08-17T03:38:17;25.00;46.40
16402;DHT22;8310;44.626;11.176;2023-08-17T03:40:46;25.00;46.40
16402;DHT22;8310;44.626;11.176;2023-08-17T03:43:14;25.00;46.30
16402;DHT22;8310;44.626;11.176;2023-08-17T03:45:42;24.90;46.10
16402;DHT22;8310;44.626;11.176;2023-08-17T03:48:10;24.80;46.10
16402;DHT22;8310;44.626;11.176;2023-08-17T03:50:38;24.70;46.20
16402;DHT22;8310;44.626;11.176;2023-08-17T03:53:05;24.60;46.20
16402;DHT22;8310;44.626;11.176;2023-08-17T03:55:33;24.50;46.20
16402;DHT22;8310;44.626;11.176;2023-08-17T03:58:02;24.50;46.40
16402;DHT22;8310;44.626;11.176;2023-08-17T04:00:31;24.40;46.40
16402;DHT22;8310;44.626;11.176;2023-08-17T04:02:59;24.30;46.50
16402;DHT22;8310;44.626;11.176;2023-08-17T04:05:27;24.30;46.50
16402;DHT22;8310;44.626;11.176;2023-08-17T04:07:55;24.20;46.60
16402;DHT22;8310;44.626;11.176;2023-08-17T04:10:22;24.20;46.70
16402;DHT22;8310;44.626;11.176;2023-08-17T04:12:50;24.10;46.70
16402;DHT22;8310;44.626;11.176;2023-08-17T04:15:19;24.10;46.90
16402;DHT22;8310;44.626;11.176;2023-08-17T04:17:48;24.00;46.90
16402;DHT22;8310;44.626;11.176;2023-08-17T04:20:16;24.10;47.00
16402;DHT22;8310;44.626;11.176;2023-08-17T04:22:43;24.10;47.10
16402;DHT22;8310;44.626;11.176;2023-08-17T04:25:11;24.10;47.10
16402;DHT22;8310;44.626;11.176;2023-08-17T04:27:39;24.20;47.30
16402;DHT22;8310;44.626;11.176;2023-08-17T04:30:08;24.20;47.30
16402;DHT22;8310;44.626;11.176;2023-08-17T04:32:39;24.20;47.30
16402;DHT22;8310;44.626;11.176;2023-08-17T04:35:08;24.20;47.30
16402;DHT22;8310;44.626;11.176;2023-08-17T04:37:35;24.20;47.30
16402;DHT22;8310;44.626;11.176;2023-08-17T04:40:04;24.30;47.40
16402;DHT22;8310;44.626;11.176;2023-08-17T04:42:31;24.30;47.40
16402;DHT22;8310;44.626;11.176;2023-08-17T04:44:59;24.30;47.50
16402;DHT22;8310;44.626;11.176;2023-08-17T04:47:26;24.30;47.50
16402;DHT22;8310;44.626;11.176;2023-08-17T04:49:56;24.40;47.60
16402;DHT22;8310;44.626;11.176;2023-08-17T04:52:23;24.50;47.60
16402;DHT22;8310;44.626;11.176;2023-08-17T04:54:51;24.50;47.60
16402;DHT22;8310;44.626;11.176;2023-08-17T04:57:19;24.50;47.50
16402;DHT22;8310;44.626;11.176;2023-08-17T04:59:46;24.50;47.50
16402;DHT22;8310;44.626;11.176;2023-08-17T05:02:14;24.50;47.60
16402;DHT22;8310;44.626;11.176;2023-08-17T05:04:43;24.50;47.80
16402;DHT22;8310;44.626;11.176;2023-08-17T05:07:12;24.60;48.00
16402;DHT22;8310;44.626;11.176;2023-08-17T05:09:39;24.60;48.10
16402;DHT22;8310;44.626;11.176;2023-08-17T05:12:08;24.70;48.20
16402;DHT22;8310;44.626;11.176;2023-08-17T05:14:35;24.80;48.40
16402;DHT22;8310;44.626;11.176;2023-08-17T05:17:03;24.90;48.70
16402;DHT22;8310;44.626;11.176;2023-08-17T05:19:33;25.10;49.00
16402;DHT22;8310;44.626;11.176;2023-08-17T05:22:08;25.20;49.10
16402;DHT22;8310;44.626;11.176;2023-08-17T05:24:37;25.40;49.40
16402;DHT22;8310;44.626;11.176;2023-08-17T05:27:05;25.60;49.60
16402;DHT22;8310;44.626;11.176;2023-08-17T05:29:32;25.80;49.90
16402;DHT22;8310;44.626;11.176;2023-08-17T05:32:00;26.00;50.10
16402;DHT22;8310;44.626;11.176;2023-08-17T05:34:27;26.20;50.80
16402;DHT22;8310;44.626;11.176;2023-08-17T05:36:55;26.30;50.30
16402;DHT22;8310;44.626;11.176;2023-08-17T05:39:23;26.50;50.40
16402;DHT22;8310;44.626;11.176;2023-08-17T05:41:52;26.60;50.50
16402;DHT22;8310;44.626;11.176;2023-08-17T05:44:20;26.70;50.50
16402;DHT22;8310;44.626;11.176;2023-08-17T05:46:48;26.80;50.70
16402;DHT22;8310;44.626;11.176;2023-08-17T05:49:15;26.90;50.90
16402;DHT22;8310;44.626;11.176;2023-08-17T05:51:43;27.00;51.10
16402;DHT22;8310;44.626;11.176;2023-08-17T05:54:11;27.20;51.10
16402;DHT22;8310;44.626;11.176;2023-08-17T05:56:38;27.30;51.00
16402;DHT22;8310;44.626;11.176;2023-08-17T05:59:11;27.30;50.90
16402;DHT22;8310;44.626;11.176;2023-08-17T06:01:39;27.50;50.90
16402;DHT22;8310;44.626;11.176;2023-08-17T06:04:07;27.60;50.80
16402;DHT22;8310;44.626;11.176;2023-08-17T06:06:35;27.70;50.70
16402;DHT22;8310;44.626;11.176;2023-08-17T06:09:02;27.70;50.40
16402;DHT22;8310;44.626;11.176;2023-08-17T06:11:30;27.80;50.30
16402;DHT22;8310;44.626;11.176;2023-08-17T06:13:57;27.80;50.20
16402;DHT22;8310;44.626;11.176;2023-08-17T06:16:30;27.80;50.20
16402;DHT22;8310;44.626;11.176;2023-08-17T06:18:58;27.80;50.30
16402;DHT22;8310;44.626;11.176;2023-08-17T06:21:25;27.90;50.50
16402;DHT22;8310;44.626;11.176;2023-08-17T06:23:53;28.00;50.50
16402;DHT22;8310;44.626;11.176;2023-08-17T06:26:20;28.00;50.50
16402;DHT22;8310;44.626;11.176;2023-08-17T06:28:48;28.10;50.60
16402;DHT22;8310;44.626;11.176;2023-08-17T06:31:16;28.20;50.80
16402;DHT22;8310;44.626;11.176;2023-08-17T06:33:46;28.30;50.90
16402;DHT22;8310;44.626;11.176;2023-08-17T06:36:14;28.40;50.90
16402;DHT22;8310;44.626;11.176;2023-08-17T06:38:41;28.50;51.10
16402;DHT22;8310;44.626;11.176;2023-08-17T06:41:12;28.60;51.00
16402;DHT22;8310;44.626;11.176;2023-08-17T06:43:40;28.70;51.00
16402;DHT22;8310;44.626;11.176;2023-08-17T06:46:08;28.80;51.10
16402;DHT22;8310;44.626;11.176;2023-08-17T06:48:35;28.90;51.10
16402;DHT22;8310;44.626;11.176;2023-08-17T06:51:04;29.10;51.20
16402;DHT22;8310;44.626;11.176;2023-08-17T06:53:32;29.20;51.30
16402;DHT22;8310;44.626;11.176;2023-08-17T06:55:59;29.30;51.20
16402;DHT22;8310;44.626;11.176;2023-08-17T06:58:29;29.40;51.20
16402;DHT22;8310;44.626;11.176;2023-08-17T07:00:57;29.50;51.30
16402;DHT22;8310;44.626;11.176;2023-08-17T07:03:25;29.60;51.30
16402;DHT22;8310;44.626;11.176;2023-08-17T07:05:53;29.70;51.30
16402;DHT22;8310;44.626;11.176;2023-08-17T07:08:22;29.80;51.30
16402;DHT22;8310;44.626;11.176;2023-08-17T07:10:49;29.90;51.30
16402;DHT22;8310;44.626;11.176;2023-08-17T07:13:17;29.90;51.20
16402;DHT22;8310;44.626;11.176;2023-08-17T07:15:44;30.00;51.30
16402;DHT22;8310;44.626;11.176;2023-08-17T07:18:12;30.10;51.30
16402;DHT22;8310;44.626;11.176;2023-08-17T07:20:40;30.20;51.30
16402;DHT22;8310;44.626;11.176;2023-08-17T07:23:08;30.30;51.40
16402;DHT22;8310;44.626;11.176;2023-08-17T07:25:37;30.40;51.50
16402;DHT22;8310;44.626;11.176;2023-08-17T07:28:05;30.50;51.60
16402;DHT22;8310;44.626;11.176;2023-08-17T07:30:33;30.60;51.60
16402;DHT22;8310;44.626;11.176;2023-08-17T07:33:00;30.70;51.60
16402;DHT22;8310;44.626;11.176;2023-08-17T07:35:28;30.70;51.70
16402;DHT22;8310;44.626;11.176;2023-08-17T07:37:58;30.80;51.70
16402;DHT22;8310;44.626;11.176;2023-08-17T07:40:26;31.00;51.80
16402;DHT22;8310;44.626;11.176;2023-08-17T07:42:54;31.10;51.90
16402;DHT22;8310;44.626;11.176;2023-08-17T07:45:23;31.20;51.90
16402;DHT22;8310;44.626;11.176;2023-08-17T07:47:50;31.30;51.90
16402;DHT22;8310;44.626;11.176;2023-08-17T07:50:18;31.40;51.90
16402;DHT22;8310;44.626;11.176;2023-08-17T07:52:47;31.50;51.80
16402;DHT22;8310;44.626;11.176;2023-08-17T07:55:14;31.60;51.80
16402;DHT22;8310;44.626;11.176;2023-08-17T07:57:42;31.70;51.80
16402;DHT22;8310;44.626;11.176;2023-08-17T08:00:12;31.70;51.70
16402;DHT22;8310;44.626;11.176;2023-08-17T08:02:42;31.80;51.80
16402;DHT22;8310;44.626;11.176;2023-08-17T08:05:10;31.90;51.90
16402;DHT22;8310;44.626;11.176;2023-08-17T08:07:39;32.00;51.90
16402;DHT22;8310;44.626;11.176;2023-08-17T08:10:07;32.10;52.10
16402;DHT22;8310;44.626;11.176;2023-08-17T08:12:35;32.20;52.10
16402;DHT22;8310;44.626;11.176;2023-08-17T08:15:03;32.30;52.20
16402;DHT22;8310;44.626;11.176;2023-08-17T08:17:33;32.40;52.10
16402;DHT22;8310;44.626;11.176;2023-08-17T08:20:01;32.50;52.00
16402;DHT22;8310;44.626;11.176;2023-08-17T08:22:28;32.60;52.10
16402;DHT22;8310;44.626;11.176;2023-08-17T08:24:57;32.70;52.10
16402;DHT22;8310;44.626;11.176;2023-08-17T08:27:24;32.70;52.20
16402;DHT22;8310;44.626;11.176;2023-08-17T08:29:52;32.90;52.20
16402;DHT22;8310;44.626;11.176;2023-08-17T08:32:20;32.90;52.20
16402;DHT22;8310;44.626;11.176;2023-08-17T08:34:49;33.00;52.20
16402;DHT22;8310;44.626;11.176;2023-08-17T08:37:17;33.10;52.30
16402;DHT22;8310;44.626;11.176;2023-08-17T08:39:51;33.20;52.30
16402;DHT22;8310;44.626;11.176;2023-08-17T08:42:19;33.30;52.20
16402;DHT22;8310;44.626;11.176;2023-08-17T08:44:48;33.40;52.30
16402;DHT22;8310;44.626;11.176;2023-08-17T08:47:17;33.50;52.30
16402;DHT22;8310;44.626;11.176;2023-08-17T08:49:54;33.50;52.30
16402;DHT22;8310;44.626;11.176;2023-08-17T08:52:23;33.70;52.50
16402;DHT22;8310;44.626;11.176;2023-08-17T08:54:57;33.80;52.50
16402;DHT22;8310;44.626;11.176;2023-08-17T08:57:28;33.90;52.50
16402;DHT22;8310;44.626;11.176;2023-08-17T08:59:57;34.00;52.50
16402;DHT22;8310;44.626;11.176;2023-08-17T09:02:26;34.20;52.40
16402;DHT22;8310;44.626;11.176;2023-08-17T09:04:57;34.20;52.40
16402;DHT22;8310;44.626;11.176;2023-08-17T09:07:26;34.30;52.30
16402;DHT22;8310;44.626;11.176;2023-08-17T09:09:55;34.30;52.00
16402;DHT22;8310;44.626;11.176;2023-08-17T09:12:23;34.30;52.10
16402;DHT22;8310;44.626;11.176;2023-08-17T09:14:52;34.40;52.20
16402;DHT22;8310;44.626;11.176;2023-08-17T09:17:22;34.50;52.40
16402;DHT22;8310;44.626;11.176;2023-08-17T09:19:50;34.50;52.20
16402;DHT22;8310;44.626;11.176;2023-08-17T09:22:24;34.60;52.30
16402;DHT22;8310;44.626;11.176;2023-08-17T09:24:52;34.70;52.30
16402;DHT22;8310;44.626;11.176;2023-08-17T09:27:20;34.90;52.40
16402;DHT22;8310;44.626;11.176;2023-08-17T09:29:48;34.90;52.90
16402;DHT22;8310;44.626;11.176;2023-08-17T09:32:16;35.00;52.20
16402;DHT22;8310;44.626;11.176;2023-08-17T09:34:44;35.00;52.10
16402;DHT22;8310;44.626;11.176;2023-08-17T09:37:12;35.10;52.30
16402;DHT22;8310;44.626;11.176;2023-08-17T09:39:42;35.20;52.30
16402;DHT22;8310;44.626;11.176;2023-08-17T09:42:10;35.30;52.40
16402;DHT22;8310;44.626;11.176;2023-08-17T09:44:37;35.40;52.40
16402;DHT22;8310;44.626;11.176;2023-08-17T09:47:05;35.50;52.40
16402;DHT22;8310;44.626;11.176;2023-08-17T09:49:34;35.50;52.30
16402;DHT22;8310;44.626;11.176;2023-08-17T09:52:02;35.60;52.00
16402;DHT22;8310;44.626;11.176;2023-08-17T09:54:31;35.60;52.10
16402;DHT22;8310;44.626;11.176;2023-08-17T09:57:00;35.60;52.10
16402;DHT22;8310;44.626;11.176;2023-08-17T09:59:29;35.70;52.30
16402;DHT22;8310;44.626;11.176;2023-08-17T10:01:56;35.80;52.20
16402;DHT22;8310;44.626;11.176;2023-08-17T10:04:24;35.80;52.10
16402;DHT22;8310;44.626;11.176;2023-08-17T10:07:00;35.90;52.00
16402;DHT22;8310;44.626;11.176;2023-08-17T10:09:31;35.90;51.90
16402;DHT22;8310;44.626;11.176;2023-08-17T10:12:07;35.90;51.80
16402;DHT22;8310;44.626;11.176;2023-08-17T10:14:39;35.90;51.90
16402;DHT22;8310;44.626;11.176;2023-08-17T10:17:15;36.00;52.00
16402;DHT22;8310;44.626;11.176;2023-08-17T10:19:47;36.10;52.10
16402;DHT22;8310;44.626;11.176;2023-08-17T10:22:22;36.30;52.20
16402;DHT22;8310;44.626;11.176;2023-08-17T10:24:51;36.30;52.10
16402;DHT22;8310;44.626;11.176;2023-08-17T10:27:24;36.40;52.10
16402;DHT22;8310;44.626;11.176;2023-08-17T10:29:53;36.50;52.10
16402;DHT22;8310;44.626;11.176;2023-08-17T10:32:22;36.50;52.00
16402;DHT22;8310;44.626;11.176;2023-08-17T10:34:51;36.60;51.90
16402;DHT22;8310;44.626;11.176;2023-08-17T10:37:20;36.60;51.90
16402;DHT22;8310;44.626;11.176;2023-08-17T10:39:49;36.60;51.80
16402;DHT22;8310;44.626;11.176;2023-08-17T10:42:31;36.60;51.60
16402;DHT22;8310;44.626;11.176;2023-08-17T10:44:59;36.60;51.50
16402;DHT22;8310;44.626;11.176;2023-08-17T10:47:30;36.50;51.30
16402;DHT22;8310;44.626;11.176;2023-08-17T10:49:59;36.50;51.30
16402;DHT22;8310;44.626;11.176;2023-08-17T10:52:30;36.40;51.30
16402;DHT22;8310;44.626;11.176;2023-08-17T10:54:59;36.40;52.00
16402;DHT22;8310;44.626;11.176;2023-08-17T10:57:28;36.40;51.50
16402;DHT22;8310;44.626;11.176;2023-08-17T11:00:18;36.40;51.50
16402;DHT22;8310;44.626;11.176;2023-08-17T11:02:57;36.50;51.60
16402;DHT22;8310;44.626;11.176;2023-08-17T11:05:36;36.60;51.60
16402;DHT22;8310;44.626;11.176;2023-08-17T11:08:04;36.70;51.70
16402;DHT22;8310;44.626;11.176;2023-08-17T11:10:32;36.80;51.80
16402;DHT22;8310;44.626;11.176;2023-08-17T11:12:59;37.00;51.80
16402;DHT22;8310;44.626;11.176;2023-08-17T11:15:40;37.10;51.80
16402;DHT22;8310;44.626;11.176;2023-08-17T11:18:11;37.20;51.60
16402;DHT22;8310;44.626;11.176;2023-08-17T11:20:40;37.20;51.50
16402;DHT22;8310;44.626;11.176;2023-08-17T11:23:09;37.30;51.60
16402;DHT22;8310;44.626;11.176;2023-08-17T11:25:37;37.40;51.70
16402;DHT22;8310;44.626;11.176;2023-08-17T11:28:07;37.40;51.50
16402;DHT22;8310;44.626;11.176;2023-08-17T11:30:36;37.50;51.30
16402;DHT22;8310;44.626;11.176;2023-08-17T11:33:06;37.50;51.20
16402;DHT22;8310;44.626;11.176;2023-08-17T11:35:34;37.50;51.30
16402;DHT22;8310;44.626;11.176;2023-08-17T11:38:03;37.60;51.50
16402;DHT22;8310;44.626;11.176;2023-08-17T11:40:32;37.60;51.40
16402;DHT22;8310;44.626;11.176;2023-08-17T11:43:00;37.70;51.50
16402;DHT22;8310;44.626;11.176;2023-08-17T11:45:28;37.90;51.50
16402;DHT22;8310;44.626;11.176;2023-08-17T11:47:56;37.90;51.50
16402;DHT22;8310;44.626;11.176;2023-08-17T11:50:26;38.10;51.50
16402;DHT22;8310;44.626;11.176;2023-08-17T11:52:53;38.20;51.50
16402;DHT22;8310;44.626;11.176;2023-08-17T11:55:21;38.20;51.40
16402;DHT22;8310;44.626;11.176;2023-08-17T11:57:48;38.30;51.30
16402;DHT22;8310;44.626;11.176;2023-08-17T12:00:20;38.30;51.30
16402;DHT22;8310;44.626;11.176;2023-08-17T12:02:49;38.30;51.30
16402;DHT22;8310;44.626;11.176;2023-08-17T12:05:21;38.30;50.80
16402;DHT22;8310;44.626;11.176;2023-08-17T12:07:53;38.20;50.70
16402;DHT22;8310;44.626;11.176;2023-08-17T12:10:21;38.10;50.30
16402;DHT22;8310;44.626;11.176;2023-08-17T12:12:52;38.00;49.70
16402;DHT22;8310;44.626;11.176;2023-08-17T12:15:20;37.60;49.30
16402;DHT22;8310;44.626;11.176;2023-08-17T12:17:48;37.40;49.40
16402;DHT22;8310;44.626;11.176;2023-08-17T12:20:19;37.20;49.40
16402;DHT22;8310;44.626;11.176;2023-08-17T12:22:47;37.00;49.20
16402;DHT22;8310;44.626;11.176;2023-08-17T12:25:20;36.80;49.10
16402;DHT22;8310;44.626;11.176;2023-08-17T12:27:49;36.70;49.20
16402;DHT22;8310;44.626;11.176;2023-08-17T12:30:28;36.60;49.40
16402;DHT22;8310;44.626;11.176;2023-08-17T12:32:57;36.50;49.60
16402;DHT22;8310;44.626;11.176;2023-08-17T12:35:24;36.50;49.60
16402;DHT22;8310;44.626;11.176;2023-08-17T12:37:52;36.50;49.60
16402;DHT22;8310;44.626;11.176;2023-08-17T12:40:22;36.50;49.70
16402;DHT22;8310;44.626;11.176;2023-08-17T12:42:50;36.50;49.60
16402;DHT22;8310;44.626;11.176;2023-08-17T12:45:18;36.50;49.40
16402;DHT22;8310;44.626;11.176;2023-08-17T12:47:46;36.40;49.20
16402;DHT22;8310;44.626;11.176;2023-08-17T12:50:13;36.30;49.20
16402;DHT22;8310;44.626;11.176;2023-08-17T12:52:42;36.30;49.20
16402;DHT22;8310;44.626;11.176;2023-08-17T12:55:10;36.20;49.10
16402;DHT22;8310;44.626;11.176;2023-08-17T12:57:39;36.10;49.00
16402;DHT22;8310;44.626;11.176;2023-08-17T13:00:09;36.00;49.20
16402;DHT22;8310;44.626;11.176;2023-08-17T13:02:37;36.00;49.20
16402;DHT22;8310;44.626;11.176;2023-08-17T13:05:07;36.00;49.30
16402;DHT22;8310;44.626;11.176;2023-08-17T13:07:34;36.00;49.30
16402;DHT22;8310;44.626;11.176;2023-08-17T13:10:01;36.00;49.00
16402;DHT22;8310;44.626;11.176;2023-08-17T13:12:29;35.90;48.90
16402;DHT22;8310;44.626;11.176;2023-08-17T13:14:59;35.80;48.80
16402;DHT22;8310;44.626;11.176;2023-08-17T13:17:26;35.80;48.90
16402;DHT22;8310;44.626;11.176;2023-08-17T13:19:54;35.70;48.90
16402;DHT22;8310;44.626;11.176;2023-08-17T13:22:21;35.70;48.90
16402;DHT22;8310;44.626;11.176;2023-08-17T13:24:49;35.70;49.10
16402;DHT22;8310;44.626;11.176;2023-08-17T13:27:16;35.70;49.30
16402;DHT22;8310;44.626;11.176;2023-08-17T13:29:44;35.80;49.40
16402;DHT22;8310;44.626;11.176;2023-08-17T13:32:13;35.80;49.40
16402;DHT22;8310;44.626;11.176;2023-08-17T13:34:41;35.80;49.40
16402;DHT22;8310;44.626;11.176;2023-08-17T13:37:08;35.90;49.50
16402;DHT22;8310;44.626;11.176;2023-08-17T13:39:36;36.00;49.40
16402;DHT22;8310;44.626;11.176;2023-08-17T13:42:04;36.00;49.20
16402;DHT22;8310;44.626;11.176;2023-08-17T13:44:32;36.00;48.90
16402;DHT22;8310;44.626;11.176;2023-08-17T13:47:00;35.90;48.90
16402;DHT22;8310;44.626;11.176;2023-08-17T13:49:29;35.90;49.10
16402;DHT22;8310;44.626;11.176;2023-08-17T13:51:56;35.90;49.10
16402;DHT22;8310;44.626;11.176;2023-08-17T13:54:24;35.90;49.10
16402;DHT22;8310;44.626;11.176;2023-08-17T13:56:51;35.90;49.00
16402;DHT22;8310;44.626;11.176;2023-08-17T13:59:19;35.80;48.80
16402;DHT22;8310;44.626;11.176;2023-08-17T14:01:46;35.80;48.70
16402;DHT22;8310;44.626;11.176;2023-08-17T14:04:14;35.70;48.60
16402;DHT22;8310;44.626;11.176;2023-08-17T14:06:45;35.60;48.60
16402;DHT22;8310;44.626;11.176;2023-08-17T14:09:13;35.40;48.50
16402;DHT22;8310;44.626;11.176;2023-08-17T14:11:41;35.40;48.60
16402;DHT22;8310;44.626;11.176;2023-08-17T14:14:08;35.30;48.50
16402;DHT22;8310;44.626;11.176;2023-08-17T14:16:36;35.30;48.50
16402;DHT22;8310;44.626;11.176;2023-08-17T14:19:04;35.30;48.50
16402;DHT22;8310;44.626;11.176;2023-08-17T14:21:31;35.20;48.60
16402;DHT22;8310;44.626;11.176;2023-08-17T14:24:00;35.20;48.60
16402;DHT22;8310;44.626;11.176;2023-08-17T14:26:29;35.20;48.60
16402;DHT22;8310;44.626;11.176;2023-08-17T14:28:57;35.20;48.60
16402;DHT22;8310;44.626;11.176;2023-08-17T14:31:24;35.10;48.50
16402;DHT22;8310;44.626;11.176;2023-08-17T14:33:51;35.10;48.50
16402;DHT22;8310;44.626;11.176;2023-08-17T14:36:19;35.10;48.50
16402;DHT22;8310;44.626;11.176;2023-08-17T14:38:47;35.00;48.50
16402;DHT22;8310;44.626;11.176;2023-08-17T14:41:16;35.00;48.40
16402;DHT22;8310;44.626;11.176;2023-08-17T14:43:43;35.00;48.40
16402;DHT22;8310;44.626;11.176;2023-08-17T14:46:10;34.90;48.40
16402;DHT22;8310;44.626;11.176;2023-08-17T14:48:39;34.90;48.30
16402;DHT22;8310;44.626;11.176;2023-08-17T14:51:06;34.80;48.20
16402;DHT22;8310;44.626;11.176;2023-08-17T14:53:33;34.80;48.20
16402;DHT22;8310;44.626;11.176;2023-08-17T14:56:04;34.70;48.20
16402;DHT22;8310;44.626;11.176;2023-08-17T14:58:33;34.60;48.20
16402;DHT22;8310;44.626;11.176;2023-08-17T15:01:01;34.60;48.10
16402;DHT22;8310;44.626;11.176;2023-08-17T15:03:29;34.50;48.00
16402;DHT22;8310;44.626;11.176;2023-08-17T15:05:57;34.40;48.00
16402;DHT22;8310;44.626;11.176;2023-08-17T15:08:24;34.40;48.10
16402;DHT22;8310;44.626;11.176;2023-08-17T15:10:52;34.40;48.10
16402;DHT22;8310;44.626;11.176;2023-08-17T15:13:20;34.30;48.10
16402;DHT22;8310;44.626;11.176;2023-08-17T15:15:50;34.30;48.00
16402;DHT22;8310;44.626;11.176;2023-08-17T15:18:18;34.20;48.00
16402;DHT22;8310;44.626;11.176;2023-08-17T15:20:46;34.20;48.00
16402;DHT22;8310;44.626;11.176;2023-08-17T15:23:15;34.10;47.90
16402;DHT22;8310;44.626;11.176;2023-08-17T15:25:43;34.00;47.80
16402;DHT22;8310;44.626;11.176;2023-08-17T15:28:11;34.00;47.90
16402;DHT22;8310;44.626;11.176;2023-08-17T15:30:38;33.90;47.90
16402;DHT22;8310;44.626;11.176;2023-08-17T15:33:07;33.90;47.90
16402;DHT22;8310;44.626;11.176;2023-08-17T15:35:35;33.90;47.90
16402;DHT22;8310;44.626;11.176;2023-08-17T15:38:02;33.80;47.80